RAID BELE STT- 22 Km le 10/03/2019

Recherche par Dossard : par Nom : par Club :

Place Dossard Nom Prenom Cat. Pl. Cat. Temps Club Sexe
1 45 ABATORD Louis-Michel V1 1 02:40:19 TCHIMBE RAID M
2 18 NIVINOU Mael SE 1 02:46:20 CSAGPITHIVIERS M
3 79 MIONZÉ Jordan SE 2 02:53:26 M
4 219 RAMANICK Stelve V1 2 02:57:53 M
5 122 SERGENT Guillaume SE 3 03:00:04 TCHIMBE RAID M
6 61 COUTY Eric V1 3 03:08:05 M
7 116 LAMANDE Steve V2 1 03:18:07 TCHIMBÉ RAID M
8 107 MARIE-ANGELIQUE Roro V1 4 03:19:15 M
9 114 DASSE-VINAY Lionel V2 2 03:19:44 GOLDEN STAR M
10 112 ROSEAU Loic SE 4 03:21:44 M
11 88 FRAGNOL Ludovic SE 5 03:23:53 M
12 204 PINEL FEREOL Georges V3 1 03:24:05 M
13 206 CLEDELIN Hervé V1 5 03:24:24 LES BAROUDEURS MARTINIQUE M
14 190 SAUVAGNAC Xavier V2 3 03:24:43 MANIKOU/TCHIMBE RAID M
15 41 TROUVÉ Benoit ES 1 03:25:07 M
16 106 GRANCOIN Anthony SE 6 03:25:45 RSMA-M M
17 195 CHAMBAZ Adrien SE 7 03:27:00 M
18 92 BEAUSSART Julien V1 6 03:29:23 M
19 210 MORVAN Antoine SE 8 03:30:08 M
20 162 ROBERT Jean Willy V1 7 03:31:24 RSMAM M
21 148 ADOLPHE Claude V1 8 03:31:30 SAM HORIZON 2000 M
22 184 BEAUSOLEIL Patrice V1 9 03:33:12 M
23 118 MESLIEN Olivier SE 9 03:37:55 M
24 109 DESCAS William V2 4 03:38:04 LES BAROUDEURS M
25 126 ANEXIME Alain V2 5 03:38:04 LES BAROUDEURS M
26 84 MICHERON Géraldine V1 1 03:41:39 MANIKOU F
27 7 HIEZ Fabien V1 10 03:44:11 M
28 46 ROUBLIQUE Elisabeth V2 1 03:44:44 TCHIMBE RAID F
29 11 CORTINOVIS Olivier V1 11 03:45:08 M
30 149 LUCCIN Franck SE 10 03:45:18 RENOVATION M
31 156 DEFOI Luce V3 1 03:45:24 CTR F
32 35 FRANÇOIS Mathias SE 11 03:45:45 M
33 5 ROUSSEAUX Romain SE 12 03:46:26 M
34 75 ADAM Antoine SE 13 03:47:17 M
35 129 SALVADOR Eddy V1 12 03:48:26 MANIKOU M
36 203 BRIEU Tellus V2 6 03:48:42 M
37 51 JOACHIM Rene-Georges V3 2 03:48:49 MANIKOU M
38 14 COURMOULS-HOULES Hugo SE 14 03:49:21 33°RIMA M
39 91 LOUIS Christophe V2 7 03:49:26 M
40 82 LOY Cédric SE 15 03:50:15 CLUB TCHIMBE RAID M
41 6 MAGNÉ Jean Marie V1 13 03:50:21 M
42 81 CARDA Jean-Baptiste SE 16 03:50:37 M
43 59 NDAGIJIMANA Félicien SE 17 03:51:09 M
44 179 MAREM Augustin V2 8 03:51:22 AMCF M
45 8 FISHMAN Eric SE 18 03:51:41 M
46 138 ARRONDELL Olivier V2 9 03:52:06 MAIRIE SPORTIVE M
47 40 COURANT Guy V3 3 03:53:10 MANIKOU M
48 13 ROUGET Arnaud V1 14 03:54:03 33°RIMA M
49 155 CABARRUS Mario V1 15 03:54:03 ASC SARA M
50 205 LE CLERC Morgan ES 2 03:54:08 MADININA BIKERS M
51 55 HONORE Thierry SE 19 03:54:59 GOLDEN STAR M
52 176 REINE Rodrigue V2 10 03:55:42 LES BAROUDEURS M
53 30 GUILLORIT Agnes V2 2 03:55:58 F
54 29 LANSADE Alexandre SE 20 03:56:18 SAM HORIZON 2000 M
55 67 MIKLOVICOVA Magdalena SE 1 03:58:41 F
56 12 LOMENCOBORREA Laurent SE 21 03:58:55 M
57 65 LAMY Romuald V1 16 03:58:58 M
58 147 ARMEDE Roddy V1 17 03:59:43 TCHIMBÉ RAID M
59 154 CRATERE Daniel V2 11 04:00:03 ASC SARA M
60 98 EDMOND Philippe V1 18 04:00:27 M
61 161 BERTE David V1 19 04:00:52 SAM HORIZON 2000 M
62 198 ITTAH Rébecca V1 2 04:01:00 TCHIMBE F
63 2 CANCELLIERI Silvio SE 22 04:02:59 M
64 52 LUCIDARME Eric V2 12 04:03:30 MANIKOU ORGANISATIONS/TLT972 M
65 146 TAYE Joseph V1 20 04:04:55 TCHIMBE RAID M
66 90 CANIS Nicolas SE 23 04:05:59 CSLG LA TRINITE M
67 151 GORVIEN Gilles V1 21 04:07:33 M
68 199 DESCAS Muguette V1 3 04:07:41 SAM HORIZON F
69 188 DESSERPRIT Pascale V2 3 04:07:58 MAIRIE SPORTIVE F
70 38 MOULIN Jean-Marc V1 22 04:08:10 TCHIMBE RAID M
71 157 VALIAME Valentin V1 23 04:08:23 M
72 165 FLAMON Carole V1 4 04:10:15 F
73 158 DEFOI Luc V2 13 04:10:15 CTR M
74 108 ZERHOUNI Djebrine V2 14 04:10:21 GOLDEN STAR M
75 120 HAURET Anne V1 5 04:10:21 MAIRIE SPORTIVE F
76 31 DICANOT Pascal V1 24 04:10:55 MANIKOU M
77 60 AURRY Sylvain V2 15 04:12:15 TCHIMBE RAID M
78 200 LASSOURCE Sébastien SE 24 04:12:22 MANIKOU RAID MARTEAU M
79 130 MARTINON Gaby V2 16 04:12:48 MANIKOU TEAM 972 M
80 160 BAUDIN Lucien V2 17 04:12:48 TCHIMBE RAID M
81 19 CRÉPIN Godefroy SE 25 04:13:49 CSAGPITHIVIERS M
82 186 JEREMIE Tony V1 25 04:14:27 SAM HORIZON 2000 M
83 196 MILANESE Sylvain SE 26 04:15:23 M
84 111 RONOT Rodolphe SE 27 04:15:49 M
85 10 GASMI Mehdi SE 28 04:16:28 33°RIMA M
86 27 BARTHELEMY Pierre SE 29 04:16:52 MARINE NATIONALE M
87 211 VANDESTOC David SE 30 04:17:38 M
88 163 LE ROUX Yann SE 31 04:17:49 LES BAROUDEURS M
89 128 GOLBRY Bruno V2 18 04:17:55 CSLG RUN972 M
90 144 DEFOI Samuel SE 32 04:18:22 TCHIMBE RAID M
91 54 GROS Jean-Michel V1 26 04:18:23 M
92 105 RETORY Denis V2 19 04:20:26 TCHIEMBE RAID M
93 171 SYLVESTRE Didier V2 20 04:20:26 SAM HORIZON 2000 M
94 32 VOURC H Maxime SE 33 04:20:28 M
95 213 RALAISOMAY Natachouille SE 2 04:21:01 F
96 64 DUTRIEUX Pierre V1 27 04:21:11 M
97 197 MARC Glen SE 34 04:21:11 M
98 187 ZOZOR Ludivine SE 3 04:23:13 TCHIMBE RAID F
99 136 CURFS Hubert V3 4 04:24:51 TCHIMBERAID M
100 208 EMONIDES Marie-Chantal V2 4 04:25:00 TCHIMBE RAID F
101 134 HELENE Josiane V3 2 04:25:01 CLUB TCHIMBE RAID F
102 63 RADOWSKI Sylvia V2 5 04:25:44 F
103 182 VAN DROOGENBROECK Aude V1 6 04:25:44 F
104 16 THOMAS Jean SE 35 04:25:51 33°RIMA M
105 17 TESTAS Anthony SE 36 04:25:52 33°RIMA M
106 22 VENTADOUR René V2 21 04:27:09 M
107 127 KERMOISON Alex V2 22 04:27:28 AMCF M
108 183 SURIC Jean-Philippe V1 28 04:27:28 AMCF M
109 132 KIBIR Germain V2 23 04:30:12 CLUB TCHIMBE RAID M
110 20 SUAU Jonathan SE 37 04:30:47 M
111 76 MANSION Julien V1 29 04:33:37 M
112 53 BEAUJOLAIS Mauray SE 38 04:34:46 MAIRIE SPORTIVE M
113 21 JUSTE Jean-Marc SE 39 04:35:05 M
114 181 CROISY Patrick V2 24 04:35:50 M
115 43 MANUEL Yvan V1 30 04:36:04 M
116 73 GUÉRÉDRAT Thierry V1 31 04:36:11 MANIKOU M
117 57 HODOUL Sylvain V2 25 04:36:46 MANIKOU M
118 74 ERIC Vetral V2 26 04:37:20 MANIKOU M
119 72 BERNARD Jérôme SE 40 04:37:42 M
120 42 CHARLES Steeve V1 32 04:37:42 M
121 113 BROSILLE Matthieu V1 33 04:39:04 M
122 135 ARICAT Félix V2 27 04:40:10 TCHIMBE RAID M
123 36 HONORE Yann V1 34 04:41:01 M
124 97 LE TREQUESSER Yves V1 35 04:41:01 M
125 101 COSSON Yohan SE 41 04:41:59 M
126 123 GENTIL Céline SE 4 04:42:03 TCHIMBE RAID F
127 177 ARCADE Jean-Philippe V2 28 04:43:05 M
128 152 PLAISSY Stephane V2 29 04:45:55 MANIKOU M
129 168 MARIE LUCE Pierre V1 36 04:48:56 AMCF M
130 191 SONEL-EDOUARD Teddy V1 37 04:48:59 TCHIMBE RAID M
131 175 COTTEREAU Jérôme V1 38 04:49:04 M
132 174 PIGNOL Jérôme V1 39 04:49:39 M
133 124 CHARODIN Michel V1 40 04:49:55 SAM HORIZON 2000 M
134 66 PEREAU Pascal V1 41 04:50:47 M
135 23 PAVILLA Loic SE 42 04:50:50 M
136 85 GEKIERE Cyril V1 42 04:51:14 MANIKOU M
137 141 RIVIERE Raphael V1 43 04:51:47 M
138 143 PHULPIN Nicolas V1 44 04:52:05 TIGER TEAM 972 M
139 166 SALOMON Nicolas V2 30 04:52:20 SAM HORIZON 2000 M
140 99 EDMOND Sandra V1 7 04:52:29 F
141 58 VIODE Emmanuel V1 45 04:53:23 MANIKOU M
142 68 PIMPY Jean Albert V2 31 04:53:49 AMCF M
143 133 MOSSIERE Jacques Olivier V2 32 04:56:11 M
144 89 FAURIEUX Yannick V3 5 04:56:38 M
145 104 FILOPON Laure V2 6 04:56:41 TCHIMBE RAID F
146 78 PAVILLA Patricia V1 8 04:56:48 F
147 169 HILLION Claude V2 33 04:56:48 CTR M
148 80 VALDOR Brice V1 46 04:56:50 MANIKOU M
149 178 ADENET-LOUVET Denis V2 34 04:57:12 M
150 173 JEAN BAPTISTE DIALLO Judith V1 9 04:57:42 SAM HORIZON 2000 F
151 170 CHANCE Armel V3 6 04:58:00 MANIKOU M
152 102 FAIVRE Philippe V2 35 05:00:32 MADININA M
153 140 CARAZA Paul V2 36 05:03:18 M
154 193 SIBADO Gilbert V3 7 05:04:11 M
155 192 REVELLE Denis V3 8 05:04:14 KARAM TRIATHLON CLUB M
156 189 AYATS Aurélien SE 43 05:05:32 TCHIMBE RAID M
157 117 LOUIS-JOSEPH Michael V1 47 05:06:17 LES BAROUDEURS 972 M
158 3 CANCELLIERI Andrea SE 5 05:07:10 F
159 125 LAHOUSSAYE-DUVIGNY Marietta V1 10 05:07:15 SAM HORIZON 2000 F
160 83 VIGOUROUX Olivier V2 37 05:07:39 MANIKOU M
161 1 MERIAN Nicolas V1 48 05:07:56 M
162 70 LARGEN Gérard V1 49 05:11:23 M
163 153 FERRER Frederic V1 50 05:12:57 ASC SARA M
164 110 BOULANGE Jean-Christophe SE 44 05:13:57 M
165 115 PALMONT Stéphane SE 45 05:14:20 M
166 142 HAUSTANT Thierry V2 38 05:14:43 MANIKOU TEAM TRAIL 972 M
167 44 RAPHA Danny V3 3 05:16:10 397663 MAIRIE SPORT/TEAMS LIM TRAIL 972 F
168 207 FIBLEUIL Yvon V2 39 05:16:11 LIGUE SPORT D ENTREPRISE M
169 26 ESVAN Mélissa SE 6 05:18:15 TCHIMBÉ RAID F
170 137 CHANE-FOC Brigitte V3 4 05:21:15 F
171 103 GOSSE Valérie V2 7 05:21:59 F
172 48 WEISS Charles V4 1 05:23:28 M
173 185 MARAN Valery V1 51 05:26:55 SAM HORIZON 2000 M
174 194 RAGOT Eric V1 52 05:27:21 M
175 212 ARDENNE Marie Noëlle V2 8 05:27:21 F
176 164 BEAUCHENE Denis V1 53 05:28:08 M
177 62 VAURY Stéphane SE 46 05:33:53 M
178 47 DEMONIERE Edgard V3 9 05:37:12 ASC ZENITH M
179 93 GASCHEN Géraldine V1 11 05:39:23 SURCOUF DIVE F
180 24 TASSIS Mario SE 47 05:41:52 M
181 37 PROSPA Adeline V1 12 05:49:58 TLT972/MANIKOU F
182 201 HILLION Patrick V2 40 05:51:36 M
183 87 RADENKOVIC Sacha V1 54 06:00:34 M
184 180 LANCLAS Marielle V2 9 06:04:01 F
185 121 ROSE-APOLINE Max V2 41 06:07:23 MANIKOU M
186 4 JEAN-MARIE Hervé SE 48 06:23:55 M
187 119 RAFFIN Hervé V1 55 06:25:00 CTR/TLT972 M
188 209 CYRILLE Fernand V1 56 06:25:01 M
189 145 OZIER Mickael V1 57 06:28:01 CLUB MANIKOU M